PWSweather.com
Personal Weather Stations
Station Observations
REUBENS
Camas Prairie, Reubens, ID

Camas PrairieReubens, ID

Lat: 46.35417, Lon: -116.53167

Elevation: 3480

Station Type: Davis VantagePro 2

http://www.theobrienranch.com/wx/wx.htm

Latest ConditionsUpdated 11:00:00 AM PDT Friday, Apr 18, 2014
Currently Today's Max Today's Min Today's Average
Temperature 41.7°F5.4°C 43.6°F6.4°C 36.1°F2.3°C 40.0°F4.4°C
Dew Point 28.8°F-1.8°C 38.6°F3.7°C 26.5°F-3.1°C 33.6°F0.9°C
Winds 17.7 mph NW28.5 kmh NW 24.1 mph WNW38.8 kmh WNW - 9.8 mph 15.8 kmh
Wind Gusts 20.0 mph32.2 kmh 27.0 mph43.5 kmh - -
Humidity 60% 91% 57% 78%
Pressure 29.99 in1015.6 mb 29.99 in1015.6 mb 29.79 in1008.8 mb -
Precipitation - 0.07 in1.8 mm - -
Hour Temp Dew Point Humidity Winds Wind Gusts Pressure Precip Precip Rate Daily Precip Total
11:00 AM 41.7°F5.4°C 28.8°F-1.8°C 60% 17.7 mph NW28.5 kmh NW 20.0 mph32.2 kmh 29.99 in1015.6 mb 0.00 in0.0 mm 0.00 in/hr0.0 mm/hr 0.07 in1.8 mm
10:30 AM 40.5°F4.7°C 26.5°F-3.1°C 57% 17.6 mph W28.3 kmh W 24.0 mph38.6 kmh 29.99 in1015.6 mb 0.00 in0.0 mm 0.00 in/hr0.0 mm/hr 0.07 in1.8 mm
10:00 AM 39.8°F4.3°C 28.2°F-2.1°C 63% 17.3 mph W27.8 kmh W 18.0 mph29.0 kmh 29.98 in1015.2 mb 0.00 in0.0 mm 0.00 in/hr0.0 mm/hr 0.07 in1.8 mm
09:30 AM 39.6°F4.2°C 28.4°F-2.0°C 64% 24.1 mph WNW38.8 kmh WNW 27.0 mph43.5 kmh 29.97 in1014.9 mb 0.00 in0.0 mm 0.00 in/hr0.0 mm/hr 0.07 in1.8 mm
09:00 AM 39.0°F3.9°C 28.6°F-1.9°C 66% 9.8 mph WNW15.8 kmh WNW 11.0 mph17.7 kmh 29.98 in1015.2 mb 0.00 in0.0 mm 0.00 in/hr0.0 mm/hr 0.07 in1.8 mm
08:30 AM 39.0°F3.9°C 30.0°F-1.1°C 70% 14.6 mph W23.5 kmh W 18.0 mph29.0 kmh 29.97 in1014.9 mb 0.00 in0.0 mm 0.00 in/hr0.0 mm/hr 0.07 in1.8 mm
08:00 AM 38.5°F3.6°C 30.6°F-0.8°C 73% 13.5 mph W21.7 kmh W 16.0 mph25.7 kmh 29.96 in1014.6 mb 0.00 in0.0 mm 0.00 in/hr0.0 mm/hr 0.07 in1.8 mm
07:30 AM 37.4°F3.0°C 31.8°F-0.1°C 80% 7.7 mph W12.4 kmh W 12.0 mph19.3 kmh 29.97 in1014.9 mb 0.00 in0.0 mm 0.00 in/hr0.0 mm/hr 0.07 in1.8 mm
07:00 AM 36.1°F2.3°C 31.8°F-0.1°C 84% 6.1 mph WNW9.8 kmh WNW 7.0 mph11.3 kmh 29.97 in1014.9 mb 0.00 in0.0 mm 0.00 in/hr0.0 mm/hr 0.07 in1.8 mm
06:30 AM 36.1°F2.3°C 32.3°F0.2°C 86% 0.8 mph NW1.3 kmh NW 4.0 mph6.4 kmh 29.95 in1014.2 mb 0.00 in0.0 mm 0.00 in/hr0.0 mm/hr 0.07 in1.8 mm
06:00 AM 37.0°F2.8°C 32.9°F0.5°C 85% Calm Calm -- 29.94 in1013.9 mb 0.00 in0.0 mm 0.00 in/hr0.0 mm/hr 0.07 in1.8 mm
05:30 AM 38.7°F3.7°C 34.3°F1.3°C 84% 13.6 mph WNW21.9 kmh WNW 13.0 mph20.9 kmh 29.91 in1012.9 mb 0.00 in0.0 mm 0.00 in/hr0.0 mm/hr 0.07 in1.8 mm
05:00 AM 37.3°F2.9°C 33.5°F0.8°C 86% 11.1 mph W17.9 kmh W 13.0 mph20.9 kmh 29.91 in1012.9 mb 0.02 in0.5 mm 0.04 in/hr1.0 mm/hr 0.07 in1.8 mm
04:30 AM 39.1°F3.9°C 36.7°F2.6°C 91% 6.4 mph NW10.3 kmh NW 10.0 mph16.1 kmh 29.89 in1012.2 mb 0.02 in0.5 mm 0.04 in/hr1.0 mm/hr 0.05 in1.3 mm
04:00 AM 38.9°F3.8°C 35.9°F2.2°C 89% 9.1 mph NW14.6 kmh NW 12.0 mph19.3 kmh 29.88 in1011.9 mb 0.03 in0.8 mm 0.06 in/hr1.5 mm/hr 0.03 in0.8 mm
03:30 AM 41.8°F5.4°C 37.1°F2.8°C 83% 1.5 mph NW2.4 kmh NW 3.0 mph4.8 kmh 29.85 in1010.8 mb 0.00 in0.0 mm 0.00 in/hr0.0 mm/hr 0.00 in0.0 mm
03:00 AM 42.1°F5.6°C 36.4°F2.4°C 80% 11.9 mph W19.2 kmh W 14.0 mph22.5 kmh 29.83 in1010.2 mb 0.00 in0.0 mm 0.00 in/hr0.0 mm/hr 0.00 in0.0 mm
02:30 AM 43.1°F6.2°C 38.0°F3.3°C 82% 7.8 mph W12.6 kmh W 11.0 mph17.7 kmh 29.81 in1009.5 mb 0.00 in0.0 mm 0.00 in/hr0.0 mm/hr 0.00 in0.0 mm
02:00 AM 43.2°F6.2°C 38.1°F3.4°C 82% 4.1 mph W6.6 kmh W 6.0 mph9.7 kmh 29.81 in1009.5 mb 0.00 in0.0 mm 0.00 in/hr0.0 mm/hr 0.00 in0.0 mm
01:30 AM 43.4°F6.3°C 38.2°F3.4°C 82% 9.9 mph W15.9 kmh W 13.0 mph20.9 kmh 29.80 in1009.1 mb 0.00 in0.0 mm 0.00 in/hr0.0 mm/hr 0.00 in0.0 mm
01:00 AM 42.7°F5.9°C 38.5°F3.6°C 85% 5.8 mph SSW9.3 kmh SSW 6.0 mph9.7 kmh 29.80 in1009.1 mb 0.00 in0.0 mm 0.00 in/hr0.0 mm/hr 0.00 in0.0 mm
12:30 AM 43.6°F6.4°C 38.5°F3.6°C 82% 4.4 mph SSW7.1 kmh SSW 5.0 mph8.0 kmh 29.80 in1009.1 mb 0.00 in0.0 mm 0.00 in/hr0.0 mm/hr 0.00 in0.0 mm
12:00 AM 42.5°F5.8°C 38.6°F3.7°C 86% 10.0 mph SSW16.1 kmh SSW 11.0 mph17.7 kmh 29.79 in1008.8 mb 0.00 in0.0 mm 0.00 in/hr0.0 mm/hr 0.00 in0.0 mm